Time;durP1;ratioP1;P1;durP2;ratioP2;P2;SDS_P1;SDS_P2;PMS_P1;PMS_P2;Temp;Humidity;BMP_temperature;BMP_pressure;BME280_temperature;BME280_humidity;BME280_pressure;Samples;Min_cycle;Max_cycle;Signal;HPM_P1;HPM_P2
2022/02/16 00:00:25;;;;;;;1.10;0.90;;;6.40;98.00;;;;;;5072185;28;20458;-67
2022/02/16 00:02:52;;;;;;;1.20;1.00;;;6.40;98.00;;;;;;5072276;28;20486;-68
2022/02/16 00:05:21;;;;;;;1.20;1.03;;;6.40;98.00;;;;;;5071984;28;20858;-68
2022/02/16 00:07:48;;;;;;;1.20;0.90;;;6.40;98.00;;;;;;5071961;28;20495;-67
2022/02/16 00:10:18;;;;;;;1.20;0.93;;;6.40;98.00;;;;;;5071625;28;20803;-68
2022/02/16 00:12:47;;;;;;;1.20;0.90;;;6.30;98.00;;;;;;5071381;28;20498;-68
2022/02/16 00:15:15;;;;;;;1.30;1.00;;;6.30;98.00;;;;;;5071471;28;20460;-68
2022/02/16 00:17:42;;;;;;;1.30;1.30;;;6.30;98.00;;;;;;5071759;28;20469;-68
2022/02/16 00:20:11;;;;;;;1.40;1.10;;;6.30;98.00;;;;;;5071899;28;20513;-68
2022/02/16 00:22:39;;;;;;;1.17;1.00;;;6.30;98.00;;;;;;5071728;28;20502;-68
2022/02/16 00:25:07;;;;;;;1.20;0.97;;;6.20;98.00;;;;;;5071499;28;20968;-67
2022/02/16 00:27:34;;;;;;;1.17;1.00;;;6.30;98.00;;;;;;5071777;28;20536;-68
2022/02/16 00:30:01;;;;;;;1.20;0.90;;;6.30;98.00;;;;;;5071474;28;20512;-68
2022/02/16 00:32:28;;;;;;;1.20;1.00;;;6.20;98.00;;;;;;5071509;28;20504;-67
2022/02/16 00:34:58;;;;;;;1.20;1.00;;;6.30;98.00;;;;;;5071542;28;20526;-68
2022/02/16 00:37:25;;;;;;;1.20;0.90;;;6.30;98.00;;;;;;5071524;28;20512;-67
2022/02/16 00:39:56;;;;;;;1.13;0.93;;;6.20;98.00;;;;;;5071526;28;20459;-68
2022/02/16 00:42:23;;;;;;;1.20;1.00;;;6.20;98.00;;;;;;5070233;28;20586;-67
2022/02/16 00:44:50;;;;;;;4.30;2.13;;;6.30;98.00;;;;;;5071368;28;20486;-68
2022/02/16 00:47:17;;;;;;;1.20;0.90;;;6.30;98.00;;;;;;5071585;28;20491;-68
2022/02/16 00:49:44;;;;;;;1.20;1.00;;;6.30;98.00;;;;;;5071426;28;20469;-68
2022/02/16 00:52:11;;;;;;;1.20;1.00;;;6.30;98.00;;;;;;5071463;28;21021;-67
2022/02/16 00:54:40;;;;;;;1.20;1.00;;;6.20;98.00;;;;;;5071305;28;20490;-68
2022/02/16 00:57:08;;;;;;;1.10;1.00;;;6.10;98.00;;;;;;5071283;28;20510;-68
2022/02/16 00:59:35;;;;;;;1.83;1.20;;;6.10;98.00;;;;;;5070113;28;20497;-67
2022/02/16 01:02:04;;;;;;;1.63;1.10;;;6.20;98.00;;;;;;5071614;28;20542;-68
2022/02/16 01:04:31;;;;;;;1.20;1.00;;;6.10;98.00;;;;;;5071232;28;20493;-68
2022/02/16 01:07:04;;;;;;;1.20;0.90;;;6.10;98.00;;;;;;5071359;28;20488;-67
2022/02/16 01:09:32;;;;;;;1.40;1.00;;;6.20;98.00;;;;;;5071180;28;20464;-67
2022/02/16 01:11:59;;;;;;;1.13;0.93;;;6.10;98.00;;;;;;5071665;28;20487;-68
2022/02/16 01:14:27;;;;;;;1.20;1.00;;;6.20;98.00;;;;;;5071131;28;20516;-67
2022/02/16 01:16:54;;;;;;;1.50;1.20;;;6.30;98.00;;;;;;5071356;28;20495;-67
2022/02/16 01:19:21;;;;;;;1.60;1.00;;;6.20;98.00;;;;;;5074367;28;20458;-67
2022/02/16 01:21:48;;;;;;;1.20;1.00;;;6.20;98.00;;;;;;5075388;28;20869;-68
2022/02/16 01:24:15;;;;;;;1.10;1.00;;;6.30;98.00;;;;;;5075200;28;20861;-68
2022/02/16 01:26:42;;;;;;;1.20;1.00;;;6.40;98.00;;;;;;5075387;28;20493;-67
2022/02/16 01:29:10;;;;;;;1.17;0.97;;;6.40;98.00;;;;;;5075055;28;20460;-67
2022/02/16 01:31:38;;;;;;;1.20;1.00;;;6.30;98.00;;;;;;5075214;28;20473;-67
2022/02/16 01:34:05;;;;;;;2.50;1.20;;;6.30;98.00;;;;;;5074663;28;20487;-67
2022/02/16 01:36:32;;;;;;;1.20;1.00;;;6.30;98.00;;;;;;5074754;28;20545;-68
2022/02/16 01:39:00;;;;;;;1.20;1.00;;;6.30;98.00;;;;;;5074627;28;20867;-67
2022/02/16 01:41:27;;;;;;;1.20;0.90;;;6.40;98.00;;;;;;5074607;28;20496;-67
2022/02/16 01:43:55;;;;;;;1.20;0.90;;;6.40;98.00;;;;;;5074517;28;20900;-67
2022/02/16 01:46:22;;;;;;;1.20;1.00;;;6.40;98.00;;;;;;5074444;28;20897;-68
2022/02/16 01:48:50;;;;;;;1.40;1.30;;;6.40;98.00;;;;;;5074526;28;20876;-67
2022/02/16 01:51:18;;;;;;;1.20;1.00;;;6.40;98.00;;;;;;5074603;28;20491;-68
2022/02/16 01:53:45;;;;;;;1.20;1.00;;;6.30;98.00;;;;;;5074077;28;20574;-67
2022/02/16 01:56:14;;;;;;;1.93;1.40;;;6.30;98.00;;;;;;5074324;28;20491;-67
2022/02/16 01:58:42;;;;;;;1.20;1.00;;;6.30;98.00;;;;;;5073044;28;20454;-67
2022/02/16 02:01:09;;;;;;;1.20;0.93;;;6.30;98.00;;;;;;5074347;28;20542;-67
2022/02/16 02:03:36;;;;;;;1.20;1.00;;;6.40;98.00;;;;;;5074266;28;20448;-67
2022/02/16 02:06:05;;;;;;;1.20;1.00;;;6.40;98.00;;;;;;5074275;28;20992;-68
2022/02/16 02:08:32;;;;;;;1.20;0.90;;;6.40;98.00;;;;;;5074078;28;20539;-68
2022/02/16 02:10:59;;;;;;;1.20;1.00;;;6.40;98.00;;;;;;5074241;28;20542;-67
2022/02/16 02:13:27;;;;;;;1.17;1.00;;;6.40;98.00;;;;;;5073959;28;20534;-67
2022/02/16 02:15:54;;;;;;;1.20;0.90;;;6.40;98.00;;;;;;5074065;28;20856;-67
2022/02/16 02:18:22;;;;;;;1.20;1.00;;;6.30;98.00;;;;;;5073974;28;20462;-68
2022/02/16 02:20:50;;;;;;;1.20;1.00;;;6.30;98.00;;;;;;5074120;28;20459;-67
2022/02/16 02:23:18;;;;;;;1.60;1.30;;;6.40;98.00;;;;;;5074021;28;20499;-67
2022/02/16 02:25:47;;;;;;;1.20;1.00;;;6.40;98.00;;;;;;5073950;28;20543;-67
2022/02/16 02:28:15;;;;;;;1.20;1.07;;;6.40;98.00;;;;;;5074028;28;20476;-67
2022/02/16 02:30:42;;;;;;;1.20;1.00;;;6.40;98.00;;;;;;5073861;28;20543;-67
2022/02/16 02:33:09;;;;;;;1.20;1.00;;;6.40;98.00;;;;;;5072786;28;20520;-67
2022/02/16 02:35:36;;;;;;;1.20;1.10;;;6.50;98.00;;;;;;5073784;28;20491;-67
2022/02/16 02:38:04;;;;;;;1.50;1.20;;;6.50;98.00;;;;;;5073944;28;21053;-67
2022/02/16 02:40:31;;;;;;;1.20;1.00;;;6.60;98.00;;;;;;5073630;28;20494;-67
2022/02/16 02:42:58;;;;;;;1.20;1.00;;;6.60;98.00;;;;;;5072318;28;20464;-67
2022/02/16 02:45:34;;;;;;;1.20;1.00;;;6.50;98.00;;;;;;5072417;28;20484;-67
2022/02/16 02:48:02;;;;;;;1.33;1.10;;;6.50;98.00;;;;;;5073621;28;20459;-68
2022/02/16 02:50:29;;;;;;;1.20;1.10;;;6.40;98.00;;;;;;5073311;28;20621;-67
2022/02/16 02:52:57;;;;;;;1.30;1.17;;;6.40;98.00;;;;;;5073883;28;20465;-68
2022/02/16 02:55:26;;;;;;;1.30;1.10;;;6.40;98.00;;;;;;5072222;28;20478;-68
2022/02/16 02:57:53;;;;;;;2.13;1.40;;;6.40;98.00;;;;;;5073349;28;20530;-67
2022/02/16 03:00:20;;;;;;;1.20;1.10;;;6.40;98.00;;;;;;5073481;28;20453;-68
2022/02/16 03:02:47;;;;;;;1.20;1.07;;;6.40;98.00;;;;;;5073139;28;21035;-68
2022/02/16 03:05:14;;;;;;;1.10;0.90;;;6.40;98.00;;;;;;5055193;28;20479;-67
2022/02/16 03:07:42;;;;;;;1.20;1.00;;;6.40;98.00;;;;;;5072860;28;20484;-67
2022/02/16 03:10:10;;;;;;;1.10;0.90;;;6.40;98.00;;;;;;5072960;28;20482;-67
2022/02/16 03:12:40;;;;;;;1.20;1.00;;;6.40;98.00;;;;;;5072740;28;20515;-67
2022/02/16 03:15:08;;;;;;;1.10;0.90;;;6.40;98.00;;;;;;5072672;28;20581;-67
2022/02/16 03:17:38;;;;;;;1.20;1.00;;;6.40;98.00;;;;;;5072936;28;20496;-67
2022/02/16 03:20:06;;;;;;;1.53;1.10;;;6.30;98.00;;;;;;5072495;28;20560;-68
2022/02/16 03:22:33;;;;;;;1.10;0.90;;;6.40;98.00;;;;;;5072583;28;20538;-67
2022/02/16 03:25:01;;;;;;;1.20;1.00;;;6.40;98.00;;;;;;5072831;28;20480;-67
2022/02/16 03:27:29;;;;;;;1.10;1.00;;;6.40;98.00;;;;;;5072333;28;21207;-67
2022/02/16 03:29:58;;;;;;;1.10;1.00;;;6.40;98.00;;;;;;5072943;28;20538;-67
2022/02/16 03:32:25;;;;;;;1.20;1.00;;;6.40;98.00;;;;;;5072624;28;20798;-67
2022/02/16 03:34:53;;;;;;;1.20;1.00;;;6.40;98.00;;;;;;5072517;28;20527;-67
2022/02/16 03:37:21;;;;;;;1.20;1.00;;;6.40;98.00;;;;;;5072402;28;20502;-67
2022/02/16 03:39:48;;;;;;;1.20;1.00;;;6.40;98.00;;;;;;5072167;28;20491;-67
2022/02/16 03:42:15;;;;;;;1.17;0.97;;;6.40;98.00;;;;;;5071801;28;20472;-67
2022/02/16 03:44:43;;;;;;;1.20;1.00;;;6.40;98.00;;;;;;5072419;28;20492;-67
2022/02/16 03:47:11;;;;;;;1.20;0.90;;;6.40;98.00;;;;;;5072328;28;20490;-67
2022/02/16 03:49:38;;;;;;;1.20;1.10;;;6.30;98.00;;;;;;5072305;28;20937;-67
2022/02/16 03:52:05;;;;;;;1.20;0.90;;;6.10;98.00;;;;;;5072272;28;20543;-68
2022/02/16 03:54:32;;;;;;;1.20;1.00;;;6.10;98.00;;;;;;5072170;28;20484;-67
2022/02/16 03:56:59;;;;;;;1.20;1.00;;;6.00;98.00;;;;;;5072078;28;20468;-68
2022/02/16 03:59:27;;;;;;;1.20;1.00;;;5.90;98.00;;;;;;5071983;28;20538;-67
2022/02/16 04:01:54;;;;;;;1.20;0.90;;;5.90;98.00;;;;;;5070975;28;20501;-68
2022/02/16 04:04:22;;;;;;;1.20;1.00;;;5.90;98.00;;;;;;5070582;28;20481;-67
2022/02/16 04:06:49;;;;;;;1.20;1.00;;;5.90;98.00;;;;;;5071471;28;20534;-68
2022/02/16 04:09:16;;;;;;;1.20;0.93;;;6.00;98.00;;;;;;5071090;28;20520;-67
2022/02/16 04:11:43;;;;;;;1.20;0.90;;;6.00;98.00;;;;;;5071618;28;20511;-67
2022/02/16 04:14:10;;;;;;;1.20;1.00;;;5.90;98.00;;;;;;5071924;28;20455;-67
2022/02/16 04:16:37;;;;;;;1.20;1.00;;;5.90;98.00;;;;;;5071987;28;20455;-68
2022/02/16 04:19:04;;;;;;;1.20;1.00;;;5.90;98.00;;;;;;5070990;28;20892;-67
2022/02/16 04:21:33;;;;;;;1.20;1.10;;;5.80;98.00;;;;;;5072354;28;20448;-67
2022/02/16 04:24:00;;;;;;;1.20;1.10;;;5.70;98.00;;;;;;5071984;28;20546;-67
2022/02/16 04:26:27;;;;;;;2.23;1.30;;;5.50;98.00;;;;;;5071854;28;20491;-67
2022/02/16 04:28:54;;;;;;;1.17;1.00;;;5.50;98.00;;;;;;5071599;28;20503;-68
2022/02/16 04:31:21;;;;;;;1.13;0.97;;;5.50;98.00;;;;;;5070389;28;20495;-68
2022/02/16 04:33:49;;;;;;;1.20;1.00;;;5.50;98.00;;;;;;5071820;28;20959;-68
2022/02/16 04:36:25;;;;;;;1.10;0.90;;;5.50;98.00;;;;;;5071572;28;20580;-67
2022/02/16 04:38:58;;;;;;;1.20;1.00;;;5.40;98.00;;;;;;5071568;28;21003;-67
2022/02/16 04:41:26;;;;;;;1.20;1.10;;;5.40;98.00;;;;;;5071828;28;20513;-67
2022/02/16 04:43:54;;;;;;;1.13;1.00;;;5.40;98.00;;;;;;5070321;28;20500;-67
2022/02/16 04:46:21;;;;;;;1.20;1.00;;;5.40;98.00;;;;;;5071448;28;20497;-68
2022/02/16 04:48:48;;;;;;;1.20;1.00;;;5.30;98.00;;;;;;5071554;28;20544;-67
2022/02/16 04:51:16;;;;;;;1.10;0.90;;;5.20;98.00;;;;;;5071649;28;20539;-67
2022/02/16 04:53:43;;;;;;;1.20;1.10;;;5.10;98.00;;;;;;5075343;28;20463;-68
2022/02/16 04:56:12;;;;;;;1.10;0.90;;;5.10;98.00;;;;;;5075370;28;20894;-67
2022/02/16 04:58:39;;;;;;;1.10;0.90;;;5.10;98.00;;;;;;5075449;28;20491;-67
2022/02/16 05:01:06;;;;;;;1.10;1.00;;;5.10;98.00;;;;;;5075344;28;20973;-68
2022/02/16 05:03:32;;;;;;;1.10;0.90;;;5.20;98.00;;;;;;5074970;28;20530;-67
2022/02/16 05:06:00;;;;;;;1.10;0.90;;;5.40;98.00;;;;;;5075418;28;20534;-67
2022/02/16 05:08:27;;;;;;;1.10;0.90;;;5.30;98.00;;;;;;5075228;28;20457;-67
2022/02/16 05:10:54;;;;;;;1.67;1.53;;;5.20;98.00;;;;;;5075291;28;20486;-67
2022/02/16 05:13:23;;;;;;;1.30;1.10;;;5.20;98.00;;;;;;5074980;28;20462;-67
2022/02/16 05:15:50;;;;;;;1.10;0.90;;;5.20;98.00;;;;;;5075068;28;20487;-67
2022/02/16 05:18:17;;;;;;;1.10;1.00;;;5.30;98.00;;;;;;5074937;28;20493;-67
2022/02/16 05:20:43;;;;;;;1.10;1.00;;;5.30;98.00;;;;;;5075152;28;20884;-67
2022/02/16 05:23:10;;;;;;;1.20;1.00;;;5.40;98.00;;;;;;5075100;28;20494;-68
2022/02/16 05:25:37;;;;;;;1.10;0.90;;;5.30;98.00;;;;;;5074969;28;20454;-67
2022/02/16 05:28:05;;;;;;;3.00;1.63;;;5.40;98.00;;;;;;5075206;28;20500;-67
2022/02/16 05:30:33;;;;;;;1.10;1.00;;;5.30;98.00;;;;;;5074898;28;20453;-67
2022/02/16 05:33:02;;;;;;;1.10;1.00;;;5.30;98.00;;;;;;5075042;28;20515;-67
2022/02/16 05:35:29;;;;;;;1.10;0.90;;;5.40;98.00;;;;;;5074850;28;20581;-68
2022/02/16 05:37:57;;;;;;;1.10;1.00;;;5.50;98.00;;;;;;5073794;28;20548;-68
2022/02/16 05:40:24;;;;;;;1.10;1.00;;;5.40;98.00;;;;;;5074924;28;20460;-67
2022/02/16 05:42:52;;;;;;;1.10;0.90;;;5.40;98.00;;;;;;5074696;28;20504;-67
2022/02/16 05:45:19;;;;;;;1.20;1.20;;;5.50;98.00;;;;;;5074905;28;20460;-67
2022/02/16 05:47:48;;;;;;;1.10;1.03;;;5.50;98.00;;;;;;5074377;28;20515;-67
2022/02/16 05:50:15;;;;;;;1.10;0.90;;;5.50;98.00;;;;;;5075028;28;20492;-67
2022/02/16 05:52:42;;;;;;;1.10;0.90;;;5.40;98.00;;;;;;5074443;28;20499;-68
2022/02/16 05:55:10;;;;;;;1.10;1.00;;;5.50;98.00;;;;;;5074143;28;20548;-67
2022/02/16 05:57:37;;;;;;;1.10;1.00;;;5.50;98.00;;;;;;5073411;28;20484;-67
2022/02/16 06:00:05;;;;;;;1.10;1.00;;;5.50;98.00;;;;;;5073301;28;20494;-67
2022/02/16 06:02:32;;;;;;;1.10;0.90;;;5.40;98.00;;;;;;5074006;28;20925;-68
2022/02/16 06:05:01;;;;;;;1.10;0.90;;;5.30;98.00;;;;;;5073267;28;20884;-67
2022/02/16 06:07:30;;;;;;;1.10;0.90;;;5.40;98.00;;;;;;5074156;28;20514;-67
2022/02/16 06:09:57;;;;;;;1.10;1.00;;;5.40;98.00;;;;;;5072687;28;20453;-67
2022/02/16 06:12:24;;;;;;;1.10;1.00;;;5.50;98.00;;;;;;5074130;28;20547;-67
2022/02/16 06:14:51;;;;;;;1.20;1.00;;;5.50;98.00;;;;;;5072662;28;20483;-67
2022/02/16 06:17:18;;;;;;;1.10;1.00;;;5.60;98.00;;;;;;5073078;28;20449;-67
2022/02/16 06:19:45;;;;;;;1.10;1.00;;;5.60;98.00;;;;;;5072736;28;20550;-67
2022/02/16 06:22:15;;;;;;;1.10;0.90;;;5.60;98.00;;;;;;5072917;28;20458;-67
2022/02/16 06:24:41;;;;;;;1.10;1.00;;;5.70;98.00;;;;;;5073902;28;20518;-67
2022/02/16 06:27:08;;;;;;;1.10;1.00;;;5.70;98.00;;;;;;5073954;28;20865;-67
2022/02/16 06:29:35;;;;;;;1.20;1.10;;;5.70;98.00;;;;;;5073724;28;20502;-68
2022/02/16 06:32:03;;;;;;;1.10;1.00;;;5.70;98.00;;;;;;5073905;28;20788;-67
2022/02/16 06:34:30;;;;;;;1.10;1.00;;;5.70;98.00;;;;;;5073819;28;20461;-67
2022/02/16 06:36:57;;;;;;;1.10;1.00;;;5.70;98.00;;;;;;5073683;28;20564;-68
2022/02/16 06:39:25;;;;;;;1.73;1.40;;;5.60;98.00;;;;;;5073845;28;20532;-68
2022/02/16 06:41:52;;;;;;;1.10;1.00;;;5.70;98.00;;;;;;5073619;28;20458;-67
2022/02/16 06:44:20;;;;;;;1.10;1.00;;;5.60;98.00;;;;;;5072483;28;20493;-67
2022/02/16 06:46:48;;;;;;;1.10;1.00;;;5.60;98.00;;;;;;5073579;28;20498;-68
2022/02/16 06:49:16;;;;;;;1.10;1.00;;;5.60;98.00;;;;;;5073688;28;20560;-67
2022/02/16 06:51:43;;;;;;;1.10;0.97;;;5.70;98.00;;;;;;5072258;28;20549;-68
2022/02/16 06:54:12;;;;;;;1.10;0.90;;;5.70;98.00;;;;;;5072241;28;20446;-67
2022/02/16 06:56:40;;;;;;;1.10;1.00;;;5.70;98.00;;;;;;5073375;28;20526;-68
2022/02/16 06:59:07;;;;;;;1.10;1.00;;;5.90;98.00;;;;;;5073365;28;20452;-68
2022/02/16 07:01:34;;;;;;;1.20;0.97;;;6.00;98.00;;;;;;5073630;28;20491;-68
2022/02/16 07:04:01;;;;;;;1.17;1.00;;;6.10;98.00;;;;;;5072099;28;20450;-67
2022/02/16 07:06:29;;;;;;;1.10;0.90;;;6.20;98.00;;;;;;5073013;28;20500;-67
2022/02/16 07:08:56;;;;;;;1.10;0.90;;;6.20;98.00;;;;;;5072033;28;20460;-68
2022/02/16 07:11:23;;;;;;;1.20;0.90;;;6.10;98.00;;;;;;5073111;28;20820;-67
2022/02/16 07:13:52;;;;;;;1.50;1.47;;;6.20;98.00;;;;;;5072959;28;20960;-67
2022/02/16 07:16:19;;;;;;;1.20;1.10;;;6.20;98.00;;;;;;5072864;28;20516;-67
2022/02/16 07:18:46;;;;;;;1.20;0.90;;;6.20;98.00;;;;;;5072582;28;20495;-67
2022/02/16 07:21:13;;;;;;;1.10;1.00;;;6.30;98.00;;;;;;5072772;28;20550;-67
2022/02/16 07:23:41;;;;;;;1.17;1.00;;;6.30;98.00;;;;;;5072647;28;20523;-68
2022/02/16 07:26:09;;;;;;;1.20;1.00;;;6.30;98.00;;;;;;5072540;28;20555;-68
2022/02/16 07:28:36;;;;;;;3.07;1.13;;;6.40;98.00;;;;;;5072779;28;20794;-68
2022/02/16 07:31:05;;;;;;;1.20;1.00;;;6.40;98.00;;;;;;5072480;28;20479;-68
2022/02/16 07:33:32;;;;;;;1.30;1.10;;;6.50;98.00;;;;;;5072503;28;20461;-68
2022/02/16 07:35:59;;;;;;;1.20;1.00;;;6.50;98.00;;;;;;5072185;28;20570;-67
2022/02/16 07:38:26;;;;;;;1.20;1.00;;;6.50;98.00;;;;;;5070570;28;20492;-68
2022/02/16 07:40:54;;;;;;;3.10;1.40;;;6.60;98.00;;;;;;5072569;28;20495;-68
2022/02/16 07:43:22;;;;;;;1.20;1.00;;;6.60;98.00;;;;;;5072497;28;21011;-68
2022/02/16 07:45:48;;;;;;;1.20;0.90;;;6.60;98.00;;;;;;5072257;28;20484;-68
2022/02/16 07:48:17;;;;;;;1.20;1.00;;;6.60;98.00;;;;;;5072529;28;20562;-68
2022/02/16 07:50:44;;;;;;;1.20;1.00;;;6.60;98.00;;;;;;5071004;28;20844;-67
2022/02/16 07:53:12;;;;;;;1.20;0.90;;;6.60;98.00;;;;;;5072247;28;20982;-67
2022/02/16 07:55:39;;;;;;;1.20;0.90;;;6.70;98.00;;;;;;5072030;28;20488;-68
2022/02/16 07:58:08;;;;;;;1.17;1.00;;;6.90;98.00;;;;;;5072213;28;20578;-67
2022/02/16 08:00:37;;;;;;;1.17;1.00;;;6.90;98.00;;;;;;5071830;28;20940;-67
2022/02/16 08:03:04;;;;;;;1.20;1.00;;;6.90;98.00;;;;;;5072138;28;20521;-68
2022/02/16 08:05:33;;;;;;;1.20;1.00;;;6.90;98.00;;;;;;5071835;28;20493;-68
2022/02/16 08:08:01;;;;;;;1.20;0.90;;;6.90;98.00;;;;;;5072182;28;20461;-67
2022/02/16 08:10:28;;;;;;;1.20;1.00;;;6.90;98.00;;;;;;5071895;28;20850;-68
2022/02/16 08:12:57;;;;;;;1.23;1.00;;;7.00;98.00;;;;;;5071965;28;20492;-68
2022/02/16 08:15:24;;;;;;;1.47;1.00;;;7.10;98.00;;;;;;5071987;28;20458;-68
2022/02/16 08:17:51;;;;;;;1.20;1.00;;;7.10;98.00;;;;;;5072162;28;20482;-68
2022/02/16 08:20:19;;;;;;;1.17;0.90;;;7.10;98.00;;;;;;5070676;28;21024;-68
2022/02/16 08:22:48;;;;;;;1.20;1.00;;;7.10;98.00;;;;;;5071856;28;20550;-67
2022/02/16 08:25:15;;;;;;;1.20;1.00;;;7.10;98.00;;;;;;5071836;28;20458;-67
2022/02/16 08:27:42;;;;;;;1.10;0.90;;;7.10;98.00;;;;;;5071447;28;20458;-67
2022/02/16 08:30:12;;;;;;;1.30;1.00;;;7.20;98.00;;;;;;5070609;28;20865;-67
2022/02/16 08:32:41;;;;;;;1.10;1.00;;;7.10;98.00;;;;;;5071750;28;20548;-67
2022/02/16 08:35:10;;;;;;;1.10;0.90;;;7.10;98.00;;;;;;5071849;28;20543;-68
2022/02/16 08:37:36;;;;;;;1.13;1.00;;;7.10;98.00;;;;;;5071759;28;20998;-67
2022/02/16 08:40:06;;;;;;;1.10;1.00;;;7.10;98.00;;;;;;5071944;28;20545;-69
2022/02/16 08:42:34;;;;;;;1.20;1.00;;;7.20;98.00;;;;;;5063258;28;20460;-69
2022/02/16 08:45:01;;;;;;;1.20;1.00;;;7.20;98.00;;;;;;5067924;28;20488;-68
2022/02/16 08:47:28;;;;;;;1.30;1.07;;;7.20;98.00;;;;;;5067202;28;20457;-69
2022/02/16 08:49:55;;;;;;;1.20;1.10;;;7.30;98.00;;;;;;5058876;28;20944;-68
2022/02/16 08:52:22;;;;;;;1.20;0.97;;;7.30;98.00;;;;;;5050900;28;20477;-69
2022/02/16 08:54:49;;;;;;;1.20;1.00;;;7.30;98.00;;;;;;5065677;28;20544;-69
2022/02/16 08:57:19;;;;;;;1.20;1.00;;;7.30;98.00;;;;;;5049433;28;20614;-66
2022/02/16 08:59:46;;;;;;;1.40;1.10;;;7.40;98.00;;;;;;5058566;28;20466;-67
2022/02/16 09:02:13;;;;;;;1.17;1.00;;;7.20;98.00;;;;;;5055976;28;20592;-69
2022/02/16 09:04:41;;;;;;;1.20;1.00;;;7.30;98.00;;;;;;5061064;28;20866;-68
2022/02/16 09:09:53;;;;;;;1.20;1.10;;;7.50;98.00;;;;;;5066562;28;20448;-68
2022/02/16 09:12:22;;;;;;;1.20;1.00;;;7.50;98.00;;;;;;5066498;28;20496;-68
2022/02/16 09:14:49;;;;;;;1.10;0.93;;;7.50;98.00;;;;;;5058594;28;20460;-68
2022/02/16 09:17:17;;;;;;;1.17;1.00;;;7.60;98.00;;;;;;5066821;28;20553;-68
2022/02/16 09:19:44;;;;;;;1.10;0.90;;;7.60;98.00;;;;;;5066441;28;20465;-68
2022/02/16 09:22:12;;;;;;;1.20;1.00;;;7.70;98.00;;;;;;5057786;28;20786;-68
2022/02/16 09:24:39;;;;;;;1.20;1.00;;;7.70;98.00;;;;;;5057456;28;20449;-68
2022/02/16 09:27:13;;;;;;;1.20;1.00;;;7.80;98.00;;;;;;5057742;28;20465;-68
2022/02/16 09:29:42;;;;;;;1.20;0.90;;;7.80;98.00;;;;;;5067067;28;20446;-68
2022/02/16 09:32:10;;;;;;;1.20;1.00;;;7.80;98.00;;;;;;5058791;28;20450;-68
2022/02/16 09:34:36;;;;;;;1.20;1.00;;;7.70;98.00;;;;;;5050162;28;20493;-68
2022/02/16 09:37:04;;;;;;;1.17;1.00;;;7.80;98.00;;;;;;5066484;28;20524;-68
2022/02/16 09:39:31;;;;;;;1.10;0.90;;;7.80;98.00;;;;;;5068117;28;20493;-68
2022/02/16 09:41:59;;;;;;;1.20;1.00;;;7.80;98.00;;;;;;5061840;28;20461;-68
2022/02/16 09:44:35;;;;;;;1.10;1.00;;;7.90;98.00;;;;;;5070128;28;20872;-68
2022/02/16 09:47:06;;;;;;;1.30;1.20;;;7.90;98.00;;;;;;5053344;28;20456;-69
2022/02/16 09:49:34;;;;;;;1.10;0.90;;;8.00;98.00;;;;;;5060640;28;20461;-68
2022/02/16 09:52:02;;;;;;;1.10;0.90;;;8.00;98.00;;;;;;5071080;28;20468;-69
2022/02/16 09:54:29;;;;;;;1.10;1.00;;;7.90;98.00;;;;;;5053868;28;20485;-70
2022/02/16 09:56:57;;;;;;;1.10;1.00;;;7.90;98.00;;;;;;5053209;28;20493;-68
2022/02/16 09:59:24;;;;;;;1.20;0.97;;;8.00;98.00;;;;;;5053149;28;20497;-69
2022/02/16 10:01:58;;;;;;;1.20;1.00;;;8.00;98.00;;;;;;5069823;28;20541;-68
2022/02/16 10:04:27;;;;;;;1.20;1.10;;;8.10;98.00;;;;;;5060225;28;20865;-69
2022/02/16 10:06:54;;;;;;;1.20;0.90;;;8.10;98.00;;;;;;5059906;28;20978;-69
2022/02/16 10:09:28;;;;;;;1.20;0.90;;;8.10;98.00;;;;;;5069579;28;20465;-68
2022/02/16 10:11:57;;;;;;;1.20;0.90;;;8.20;98.00;;;;;;5061707;28;20974;-69
2022/02/16 10:14:27;;;;;;;1.20;1.00;;;8.20;98.00;;;;;;5052856;28;20552;-69
2022/02/16 10:16:54;;;;;;;1.20;1.00;;;8.30;98.00;;;;;;5064751;28;20586;-69
2022/02/16 10:19:21;;;;;;;1.17;0.90;;;8.30;98.00;;;;;;5061750;28;20521;-68
2022/02/16 10:22:05;;;;;;;1.87;1.40;;;8.30;98.00;;;;;;5058283;28;20486;-69
2022/02/16 10:24:33;;;;;;;1.20;0.90;;;8.20;98.00;;;;;;5062655;28;20485;-68
2022/02/16 10:27:00;;;;;;;1.20;1.00;;;8.10;98.00;;;;;;5055599;28;20486;-69
2022/02/16 10:29:29;;;;;;;1.20;0.90;;;8.20;98.00;;;;;;5064459;28;20981;-68
2022/02/16 10:31:58;;;;;;;1.13;0.90;;;8.20;98.00;;;;;;5067260;28;20500;-68
2022/02/16 10:34:50;;;;;;;1.10;1.00;;;8.20;98.00;;;;;;5061663;28;20491;-68
2022/02/16 10:37:20;;;;;;;1.20;0.93;;;8.30;98.00;;;;;;5065852;28;20583;-69
2022/02/16 10:40:10;;;;;;;1.20;1.00;;;8.30;98.00;;;;;;5067358;28;20510;-69
2022/02/16 10:42:37;;;;;;;1.23;1.03;;;8.40;98.00;;;;;;5058463;28;20493;-69
2022/02/16 10:45:12;;;;;;;1.20;0.90;;;8.40;98.00;;;;;;5063734;28;20464;-69
2022/02/16 10:47:59;;;;;;;1.17;1.00;;;8.40;98.00;;;;;;5055148;28;20821;-69
2022/02/16 10:50:28;;;;;;;1.20;0.90;;;8.40;98.00;;;;;;5052851;28;20455;-68
2022/02/16 10:52:58;;;;;;;1.20;0.97;;;8.40;98.00;;;;;;5058657;28;20483;-67
2022/02/16 10:55:37;;;;;;;1.20;0.97;;;8.50;98.00;;;;;;5061265;28;20554;-68
2022/02/16 10:58:05;;;;;;;1.20;1.00;;;8.50;98.00;;;;;;5052441;28;20890;-67
2022/02/16 11:00:35;;;;;;;1.30;1.00;;;8.50;98.00;;;;;;5052718;28;20462;-67
2022/02/16 11:03:06;;;;;;;1.20;1.00;;;8.60;98.00;;;;;;5056201;28;21002;-67
2022/02/16 11:05:36;;;;;;;1.17;0.90;;;8.60;98.00;;;;;;5069676;28;20467;-67
2022/02/16 11:08:12;;;;;;;1.60;1.27;;;8.70;98.00;;;;;;5060516;28;20486;-67
2022/02/16 11:10:41;;;;;;;1.20;1.10;;;8.70;98.00;;;;;;5060269;28;20871;-67
2022/02/16 11:13:09;;;;;;;1.20;0.90;;;8.80;98.00;;;;;;5068177;28;20468;-68
2022/02/16 11:15:38;;;;;;;1.20;0.97;;;8.90;98.00;;;;;;5054870;28;20496;-69
2022/02/16 11:18:13;;;;;;;1.20;1.00;;;8.90;98.00;;;;;;5061160;28;20495;-67
2022/02/16 11:20:41;;;;;;;1.20;0.90;;;8.90;98.00;;;;;;5051912;28;20498;-68
2022/02/16 11:23:11;;;;;;;1.20;0.90;;;9.00;98.00;;;;;;5058428;28;20485;-67
2022/02/16 11:25:41;;;;;;;1.20;1.00;;;9.00;98.00;;;;;;5059765;28;20449;-67
2022/02/16 11:28:12;;;;;;;1.20;1.00;;;9.10;98.00;;;;;;5052835;28;20542;-67
2022/02/16 11:30:41;;;;;;;1.20;1.00;;;9.10;98.00;;;;;;5059106;28;20458;-67
2022/02/16 11:33:26;;;;;;;1.20;1.10;;;9.20;98.00;;;;;;5060320;28;20468;-67
2022/02/16 11:35:55;;;;;;;1.20;1.00;;;9.20;98.00;;;;;;5051232;28;20458;-68
2022/02/16 11:38:38;;;;;;;1.20;1.00;;;9.30;98.00;;;;;;5067560;28;20546;-67
2022/02/16 11:41:20;;;;;;;1.20;1.00;;;9.40;98.00;;;;;;5054037;28;20577;-67
2022/02/16 11:43:54;;;;;;;1.20;1.00;;;9.40;98.00;;;;;;5064121;28;21027;-67
2022/02/16 11:46:40;;;;;;;1.20;1.00;;;9.50;98.00;;;;;;5056165;28;20799;-67
2022/02/16 11:49:07;;;;;;;1.20;0.90;;;9.50;98.00;;;;;;5059020;28;20455;-67
2022/02/16 11:51:39;;;;;;;1.20;0.90;;;9.60;98.00;;;;;;5047379;28;20510;-67
2022/02/16 11:54:56;;;;;;;1.20;1.00;;;9.60;98.00;;;;;;5068004;28;20492;-66
2022/02/16 11:57:39;;;;;;;1.20;1.00;;;9.70;98.00;;;;;;5055507;28;20527;-67
2022/02/16 12:00:15;;;;;;;1.20;1.00;;;9.70;98.00;;;;;;5067709;28;20540;-67
2022/02/16 12:03:23;;;;;;;1.20;1.00;;;9.80;98.00;;;;;;5058926;28;20509;-67
2022/02/16 12:05:56;;;;;;;1.20;1.00;;;9.90;98.00;;;;;;5061585;28;20546;-67
2022/02/16 12:08:26;;;;;;;1.20;0.90;;;9.90;98.00;;;;;;5058151;28;20475;-68
2022/02/16 12:10:55;;;;;;;1.20;0.97;;;10.00;98.00;;;;;;5068665;28;21104;-67
2022/02/16 12:13:29;;;;;;;1.40;1.20;;;10.10;98.00;;;;;;5054799;28;20472;-67
2022/02/16 12:15:58;;;;;;;1.20;1.10;;;10.20;98.00;;;;;;5054150;28;20457;-67
2022/02/16 12:18:27;;;;;;;1.20;0.90;;;10.20;98.00;;;;;;5063429;28;20557;-67
2022/02/16 12:20:54;;;;;;;1.20;1.00;;;10.30;98.00;;;;;;5059144;28;20493;-67
2022/02/16 12:23:22;;;;;;;1.20;1.00;;;10.30;98.00;;;;;;5063500;28;20449;-67
2022/02/16 12:26:06;;;;;;;1.30;1.10;;;10.30;98.00;;;;;;5055028;28;20486;-67
2022/02/16 12:28:48;;;;;;;1.20;0.90;;;10.30;98.00;;;;;;5050397;28;20470;-68
2022/02/16 12:31:17;;;;;;;1.30;1.23;;;10.20;98.00;;;;;;5048260;28;20517;-67
2022/02/16 12:33:51;;;;;;;1.20;1.00;;;10.20;98.00;;;;;;5058781;28;20472;-67
2022/02/16 12:36:18;;;;;;;1.20;1.00;;;10.30;98.00;;;;;;5049783;28;20546;-67
2022/02/16 12:38:48;;;;;;;1.20;1.10;;;10.30;98.00;;;;;;5060080;28;20522;-68
2022/02/16 12:41:19;;;;;;;1.20;1.10;;;10.30;98.00;;;;;;5067891;28;20472;-68
2022/02/16 12:44:09;;;;;;;1.20;1.00;;;10.30;98.00;;;;;;5067663;28;21089;-67
2022/02/16 12:46:38;;;;;;;1.20;0.97;;;10.30;98.00;;;;;;5057595;28;20911;-67
2022/02/16 12:49:05;;;;;;;1.20;1.00;;;10.30;98.00;;;;;;5056741;28;20498;-67
2022/02/16 12:51:35;;;;;;;1.20;1.00;;;10.30;98.00;;;;;;5057745;28;20461;-67
2022/02/16 12:54:07;;;;;;;1.20;0.90;;;10.30;98.00;;;;;;5051326;28;20519;-67
2022/02/16 12:56:36;;;;;;;2.30;1.20;;;10.20;98.00;;;;;;5061859;28;20471;-68
2022/02/16 12:59:21;;;;;;;1.20;1.00;;;10.20;98.00;;;;;;5058477;28;20542;-67
2022/02/16 13:01:49;;;;;;;1.20;0.90;;;10.10;98.00;;;;;;5053117;28;20454;-67
2022/02/16 13:04:17;;;;;;;1.20;1.00;;;10.20;98.00;;;;;;5064178;28;20496;-67
2022/02/16 13:06:47;;;;;;;1.20;1.00;;;10.20;98.00;;;;;;5053332;28;20495;-67